createdAt,value
2023-04-11T00:03:20.300Z,100877.63
2023-04-11T00:08:16.988Z,100866.53
2023-04-11T00:13:13.645Z,100857.09
2023-04-11T00:18:12.602Z,100857.44
2023-04-11T00:23:09.906Z,100852.34
2023-04-11T00:28:06.571Z,100843.59
2023-04-11T00:33:03.926Z,100828.53
2023-04-11T00:38:01.474Z,100813.78
2023-04-11T00:42:58.823Z,100834.47
2023-04-11T00:47:55.571Z,100827.19
2023-04-11T00:52:53.094Z,100837.03
2023-04-11T00:57:52.822Z,100839.38
2023-04-11T01:02:51.587Z,100833.75
2023-04-11T01:07:50.711Z,100831.97
2023-04-11T01:12:47.493Z,100827.00
2023-04-11T01:17:44.943Z,100819.88
2023-04-11T01:22:42.771Z,100815.47
2023-04-11T01:27:41.774Z,100817.47
2023-04-11T01:32:38.656Z,100810.75
2023-04-11T01:37:35.413Z,100803.53
2023-04-11T01:42:32.746Z,100782.59
2023-04-11T01:47:30.378Z,100796.06
2023-04-11T01:52:27.014Z,100791.75
2023-04-11T01:57:23.636Z,100775.19
2023-04-11T02:02:20.293Z,100778.16
2023-04-11T02:07:17.855Z,100774.72
2023-04-11T02:12:17.710Z,100772.41
2023-04-11T02:17:17.163Z,100767.81
2023-04-11T02:22:14.687Z,100769.13
2023-04-11T02:27:11.952Z,100757.81
2023-04-11T02:32:08.692Z,100766.34
2023-04-11T02:37:05.915Z,100752.09
2023-04-11T02:42:03.937Z,100744.88
2023-04-11T02:47:03.179Z,100749.91
2023-04-11T02:51:59.901Z,100735.94
2023-04-11T02:56:58.502Z,100729.88
2023-04-11T03:01:57.056Z,100723.50
2023-04-11T03:06:56.057Z,100718.25
2023-04-11T03:11:52.918Z,100715.84
2023-04-11T03:16:52.128Z,100719.28
2023-04-11T03:21:49.175Z,100714.56
2023-04-11T03:26:47.129Z,100712.56
2023-04-11T03:31:45.973Z,100703.09
2023-04-11T03:36:43.838Z,100697.84
2023-04-11T03:41:41.467Z,100698.63
2023-04-11T03:46:41.225Z,100693.97
2023-04-11T03:51:38.290Z,100680.44
2023-04-11T03:56:37.148Z,100664.03
2023-04-11T04:01:37.420Z,100654.38
2023-04-11T04:06:36.409Z,100677.31
2023-04-11T04:11:34.249Z,100654.47
2023-04-11T04:16:31.034Z,100676.00
2023-04-11T04:21:32.139Z,100670.72
2023-04-11T04:26:30.922Z,100662.03
2023-04-11T04:32:01.207Z,100658.34
2023-04-11T04:37:07.174Z,100655.63
2023-04-11T04:42:11.355Z,100643.47
2023-04-11T04:47:10.262Z,100637.38
2023-04-11T04:52:07.019Z,100640.16
2023-04-11T04:57:04.014Z,100631.28
2023-04-11T05:02:02.979Z,100636.31
2023-04-11T05:07:00.039Z,100635.38
2023-04-11T05:11:58.480Z,100634.31
2023-04-11T05:16:55.293Z,100634.16
2023-04-11T05:21:52.968Z,100628.88
2023-04-11T05:26:49.911Z,100620.34
2023-04-11T05:31:50.734Z,100624.00
2023-04-11T05:36:47.941Z,100623.69
2023-04-11T05:41:45.494Z,100620.13
2023-04-11T05:46:42.380Z,100602.50
2023-04-11T05:51:39.154Z,100603.13
2023-04-11T05:56:39.447Z,100596.31
2023-04-11T06:01:39.181Z,100600.25
2023-04-11T06:06:42.310Z,100601.03
2023-04-11T06:11:39.282Z,100593.72
2023-04-11T06:16:38.956Z,100569.25
2023-04-11T06:21:36.121Z,100582.19
2023-04-11T06:26:33.152Z,100571.38
2023-04-11T06:31:33.156Z,100566.66
2023-04-11T06:36:32.231Z,100561.41
2023-04-11T06:41:29.283Z,100555.38
2023-04-11T06:46:26.789Z,100548.28
2023-04-11T06:51:23.539Z,100554.72
2023-04-11T06:56:21.398Z,100556.56
2023-04-11T07:01:20.239Z,100557.31
2023-04-11T07:06:20.054Z,100554.47
2023-04-11T07:11:18.545Z,100541.25
2023-04-11T07:16:17.609Z,100551.25
2023-04-11T07:21:14.861Z,100548.66
2023-04-11T07:26:17.904Z,100524.81
2023-04-11T07:31:14.797Z,100536.28
2023-04-11T07:36:12.825Z,100527.50
2023-04-11T07:41:09.782Z,100519.75
2023-04-11T07:46:09.361Z,100523.56
2023-04-11T07:51:14.277Z,100526.16
2023-04-11T07:56:12.584Z,100518.59
2023-04-11T08:07:43.242Z,100509.91
2023-04-11T08:44:11.838Z,100438.63
2023-04-11T08:49:08.657Z,100430.97
2023-04-11T08:54:05.782Z,100424.50
2023-04-11T08:59:02.497Z,100408.19
2023-04-11T09:04:04.562Z,100407.47
2023-04-11T09:09:04.761Z,100396.72
2023-04-11T09:14:08.199Z,100375.09
2023-04-11T09:19:22.724Z,100379.44
2023-04-11T09:24:21.279Z,100376.47
2023-04-11T09:29:56.694Z,100372.31
2023-04-11T09:35:09.766Z,100380.31
2023-04-11T09:40:07.026Z,100334.06
2023-04-11T09:45:04.511Z,100352.66
2023-04-11T09:50:06.682Z,100308.78
2023-04-11T09:55:12.357Z,100318.88
2023-04-11T10:00:15.691Z,100303.22
2023-04-11T10:05:16.097Z,100303.28
2023-04-11T10:10:16.909Z,100309.00
2023-04-11T10:15:19.523Z,100309.06
2023-04-11T10:20:33.202Z,100320.47
2023-04-11T10:25:30.807Z,100320.47
2023-04-11T10:30:46.111Z,100306.59
2023-04-11T10:35:56.051Z,100288.22
2023-04-11T10:41:07.891Z,100290.50
2023-04-11T10:46:18.345Z,100290.56
2023-04-11T10:51:22.795Z,100269.44
2023-04-11T10:56:34.673Z,100280.88
2023-04-11T11:01:37.540Z,100268.31
2023-04-11T11:06:47.249Z,100283.72
2023-04-11T11:12:07.372Z,100288.88
2023-04-11T11:17:05.408Z,100279.94
2023-04-11T11:22:06.136Z,100265.13
2023-04-11T11:27:03.150Z,100248.69
2023-04-11T11:32:00.331Z,100247.31
2023-04-11T11:36:58.451Z,100236.88
2023-04-11T11:41:57.186Z,100239.47
2023-04-11T11:47:03.367Z,100247.06
2023-04-11T11:52:01.682Z,100253.53
2023-04-11T11:56:58.399Z,100259.38
2023-04-11T12:01:55.480Z,100254.91
2023-04-11T12:06:52.458Z,100255.69
2023-04-11T12:11:54.810Z,100255.38
2023-04-11T12:17:04.378Z,100267.28
2023-04-11T12:22:04.155Z,100262.34
2023-04-11T12:27:07.121Z,100239.16
2023-04-11T12:32:05.007Z,100260.16
2023-04-11T12:37:28.865Z,100254.09
2023-04-11T12:42:27.416Z,100232.78
2023-04-11T12:47:27.504Z,100231.88
2023-04-11T12:52:24.985Z,100224.09
2023-04-11T12:57:30.978Z,100216.91
2023-04-11T13:02:31.214Z,100208.97
2023-04-11T13:07:34.485Z,100204.63
2023-04-11T13:12:39.954Z,100202.41
2023-04-11T13:17:38.735Z,100192.84
2023-04-11T13:22:48.722Z,100191.47
2023-04-11T13:27:47.837Z,100200.81
2023-04-11T13:32:45.565Z,100186.53
2023-04-11T13:37:44.949Z,100182.66
2023-04-11T13:42:41.788Z,100181.72
2023-04-11T13:47:38.884Z,100181.66
2023-04-11T13:52:36.923Z,100177.81
2023-04-11T13:57:33.582Z,100162.00
2023-04-11T14:02:30.256Z,100180.59
2023-04-11T14:07:27.135Z,100153.50
2023-04-11T14:12:24.534Z,100166.22
2023-04-11T14:17:24.189Z,100164.19
2023-04-11T14:22:20.884Z,100164.06
2023-04-11T14:27:17.804Z,100176.63
2023-04-11T14:32:15.502Z,100169.25
2023-04-11T14:37:12.177Z,100155.56
2023-04-11T14:42:09.330Z,100161.50
2023-04-11T14:47:08.152Z,100165.78
2023-04-11T14:52:05.512Z,100173.75
2023-04-11T14:57:03.476Z,100164.38
2023-04-11T15:02:00.093Z,100161.06
2023-04-11T15:06:56.929Z,100150.66
2023-04-11T15:11:56.442Z,100149.91
2023-04-11T15:16:53.180Z,100155.53
2023-04-11T15:21:50.085Z,100151.84
2023-04-11T15:26:47.113Z,100143.31
2023-04-11T15:31:45.804Z,100150.19
2023-04-11T15:36:44.519Z,100137.19
2023-04-11T15:41:41.374Z,100126.97
2023-04-11T15:46:38.954Z,100139.53
2023-04-11T15:51:37.511Z,100127.41
2023-04-11T15:56:34.228Z,100133.84
2023-04-11T16:01:31.090Z,100120.25
2023-04-11T16:06:28.143Z,100102.09
2023-04-11T16:11:25.786Z,100115.00
2023-04-11T16:16:22.603Z,100109.16
2023-04-11T16:21:24.142Z,100105.94
2023-04-11T16:26:20.896Z,100119.47
2023-04-11T16:31:23.947Z,100106.50
2023-04-11T16:36:24.345Z,100118.09
2023-04-11T16:41:20.980Z,100115.69
2023-04-11T16:46:17.689Z,100124.63
2023-04-11T16:51:18.173Z,100121.75
2023-04-11T16:56:17.252Z,100123.09
2023-04-11T17:01:13.873Z,100134.66
2023-04-11T17:06:14.795Z,100132.78
2023-04-11T17:11:12.925Z,100130.25
2023-04-11T17:16:15.013Z,100128.38
2023-04-11T17:21:23.476Z,100116.81
2023-04-11T17:26:21.447Z,100128.38
2023-04-11T17:31:19.132Z,100131.00
2023-04-11T17:36:15.776Z,100126.72
2023-04-11T17:41:15.079Z,100129.13
2023-04-11T17:46:13.125Z,100115.19
2023-04-11T17:51:09.883Z,100107.53
2023-04-11T17:56:07.043Z,100117.56
2023-04-11T18:01:18.476Z,100112.91
2023-04-11T18:06:28.828Z,100116.72
2023-04-11T18:11:25.783Z,100123.25
2023-04-11T18:16:22.831Z,100122.25
2023-04-11T18:21:20.967Z,100119.88
2023-04-11T18:26:22.631Z,100122.84
2023-04-11T18:31:19.519Z,100107.47
2023-04-11T18:36:16.181Z,100131.59
2023-04-11T18:41:14.634Z,100130.28
2023-04-11T18:46:15.722Z,100124.66
2023-04-11T18:51:12.549Z,100114.00
2023-04-11T18:56:11.370Z,100099.88
2023-04-11T19:01:16.049Z,100105.06
2023-04-11T19:06:14.449Z,100120.38
2023-04-11T19:11:11.351Z,100131.66
2023-04-11T19:16:08.304Z,100126.44
2023-04-11T19:21:05.401Z,100125.97
2023-04-11T19:26:02.777Z,100106.25
2023-04-11T19:30:59.603Z,100114.63
2023-04-11T19:35:56.554Z,100085.50
2023-04-11T19:40:56.208Z,100096.19
2023-04-11T19:45:53.662Z,100116.38
2023-04-11T19:50:51.286Z,100093.72
2023-04-11T19:55:50.425Z,100097.75
2023-04-11T20:00:47.064Z,100089.88
2023-04-11T20:05:44.411Z,100090.75
2023-04-11T20:10:41.204Z,100087.44
2023-04-11T20:15:37.980Z,100074.13
2023-04-11T20:20:36.226Z,100073.53
2023-04-11T20:25:34.115Z,100065.53
2023-04-11T20:30:31.923Z,100056.66
2023-04-11T20:35:28.815Z,100055.97
2023-04-11T20:40:25.428Z,100064.53
2023-04-11T20:45:25.033Z,100057.13
2023-04-11T20:50:21.680Z,100052.50
2023-04-11T20:55:20.160Z,100035.56
2023-04-11T21:00:17.959Z,100040.94
2023-04-11T21:05:15.644Z,100039.94
2023-04-11T21:10:12.459Z,100027.16
2023-04-11T21:15:09.523Z,100005.88
2023-04-11T21:20:11.692Z,100017.00
2023-04-11T21:25:09.536Z,100018.19
2023-04-11T21:30:06.861Z,100014.72
2023-04-11T21:35:05.037Z,100014.59
2023-04-11T21:40:02.152Z,100014.97
2023-04-11T21:44:59.520Z,100016.88
2023-04-11T21:49:59.019Z,100025.34
2023-04-11T21:54:55.672Z,100019.09
2023-04-11T22:05:14.016Z,100009.03
2023-04-11T22:10:11.312Z,100008.44
2023-04-11T22:15:10.446Z,100011.84
2023-04-11T22:20:08.678Z,100006.59
2023-04-11T22:25:07.703Z,100001.94
2023-04-11T22:30:04.792Z,99987.25
2023-04-11T22:35:01.554Z,100006.00
2023-04-11T22:39:58.247Z,100004.28
2023-04-11T22:44:55.563Z,99994.72
2023-04-11T22:49:52.282Z,99991.09
2023-04-11T22:54:48.902Z,99996.53
2023-04-11T22:59:45.775Z,99985.56
2023-04-11T23:04:43.991Z,99983.09
2023-04-11T23:09:40.703Z,99990.97
2023-04-11T23:14:37.561Z,99993.19
2023-04-11T23:19:36.748Z,99992.13
2023-04-11T23:24:33.988Z,99990.28
2023-04-11T23:29:31.844Z,99997.59
2023-04-11T23:34:28.454Z,99984.03
2023-04-11T23:39:25.776Z,99982.31
2023-04-11T23:44:24.148Z,99989.63
2023-04-11T23:49:23.560Z,99970.69
2023-04-11T23:54:20.138Z,99970.69
2023-04-11T23:59:16.771Z,99966.69
